Time,TemperatureF,DewpointF,PressureIn,WindDirection,WindDirectionDegrees,WindSpeedMPH,WindSpeedGustMPH,Humidity,HourlyPrecipIn,Conditions,Clouds,dailyrainin,SoftwareType,DateUTC
2013-09-24 00:01:00,45.6,43.9,30.08,East,91,0.0,0.0,94,0.00,,,0.00,WUHU216DAVISVP2,2013-09-24 04:01:00,
2013-09-24 00:06:00,45.5,43.8,30.08,East,91,0.0,0.0,94,0.00,,,0.00,WUHU216DAVISVP2,2013-09-24 04:06:00,
2013-09-24 00:11:00,45.4,43.7,30.08,East,91,0.0,0.0,94,0.00,,,0.00,WUHU216DAVISVP2,2013-09-24 04:11:00,
2013-09-24 00:16:00,45.3,43.6,30.08,East,91,0.0,0.0,94,0.00,,,0.00,WUHU216DAVISVP2,2013-09-24 04:16:00,
2013-09-24 00:21:00,45.2,43.5,30.08,East,91,0.0,0.0,94,0.00,,,0.00,WUHU216DAVISVP2,2013-09-24 04:21:00,
2013-09-24 00:26:00,45.2,43.5,30.08,East,91,0.0,0.0,94,0.00,,,0.00,WUHU216DAVISVP2,2013-09-24 04:26:00,
2013-09-24 00:31:00,45.1,43.4,30.08,East,91,0.0,0.0,94,0.00,,,0.00,WUHU216DAVISVP2,2013-09-24 04:31:00,
2013-09-24 00:36:00,44.9,43.0,30.08,East,91,0.0,0.0,93,0.00,,,0.00,WUHU216DAVISVP2,2013-09-24 04:36:00,
2013-09-24 00:41:00,44.5,42.6,30.08,East,91,0.0,0.0,93,0.00,,,0.00,WUHU216DAVISVP2,2013-09-24 04:41:00,
2013-09-24 00:46:00,44.3,42.4,30.08,East,91,0.0,0.0,93,0.00,,,0.00,WUHU216DAVISVP2,2013-09-24 04:46:00,
2013-09-24 00:51:00,44.1,42.2,30.08,East,91,0.0,0.0,93,0.00,,,0.00,WUHU216DAVISVP2,2013-09-24 04:51:00,
2013-09-24 00:56:00,44.0,42.3,30.08,East,91,0.0,0.0,94,0.00,,,0.00,WUHU216DAVISVP2,2013-09-24 04:56:00,
2013-09-24 01:01:00,43.8,42.1,30.08,East,91,0.0,0.0,94,0.00,,,0.00,WUHU216DAVISVP2,2013-09-24 05:01:00,
2013-09-24 01:06:00,43.7,42.0,30.08,East,91,0.0,0.0,94,0.00,,,0.00,WUHU216DAVISVP2,2013-09-24 05:06:00,
2013-09-24 01:11:00,43.6,41.9,30.08,East,91,0.0,0.0,94,0.00,,,0.00,WUHU216DAVISVP2,2013-09-24 05:11:00,
2013-09-24 01:16:00,43.4,41.7,30.08,East,91,0.0,0.0,94,0.00,,,0.00,WUHU216DAVISVP2,2013-09-24 05:16:00,
2013-09-24 01:21:00,43.4,41.7,30.08,East,91,0.0,0.0,94,0.00,,,0.00,WUHU216DAVISVP2,2013-09-24 05:21:00,
2013-09-24 01:26:00,43.4,41.7,30.08,East,91,0.0,0.0,94,0.00,,,0.00,WUHU216DAVISVP2,2013-09-24 05:26:00,
2013-09-24 01:31:00,43.3,41.6,30.08,East,91,0.0,0.0,94,0.00,,,0.00,WUHU216DAVISVP2,2013-09-24 05:31:00,
2013-09-24 01:36:00,43.2,41.5,30.08,East,91,0.0,0.0,94,0.00,,,0.00,WUHU216DAVISVP2,2013-09-24 05:36:00,
2013-09-24 01:41:00,43.2,41.5,30.08,East,91,0.0,0.0,94,0.00,,,0.00,WUHU216DAVISVP2,2013-09-24 05:41:00,
2013-09-24 01:46:00,43.1,41.7,30.08,East,91,0.0,0.0,95,0.00,,,0.00,WUHU216DAVISVP2,2013-09-24 05:46:00,
2013-09-24 01:51:00,43.2,41.8,30.08,East,91,0.0,0.0,95,0.00,,,0.00,WUHU216DAVISVP2,2013-09-24 05:51:00,
2013-09-24 01:56:00,43.2,41.8,30.08,East,91,0.0,0.0,95,0.00,,,0.00,WUHU216DAVISVP2,2013-09-24 05:56:00,
2013-09-24 02:01:00,43.3,41.9,30.08,East,91,0.0,0.0,95,0.00,,,0.00,WUHU216DAVISVP2,2013-09-24 06:01:00,
2013-09-24 02:06:00,43.3,41.9,30.08,East,91,0.0,0.0,95,0.00,,,0.00,WUHU216DAVISVP2,2013-09-24 06:06:00,
2013-09-24 02:11:00,43.0,41.6,30.08,East,91,0.0,0.0,95,0.00,,,0.00,WUHU216DAVISVP2,2013-09-24 06:11:00,
2013-09-24 02:16:00,42.8,41.1,30.08,East,91,0.0,0.0,94,0.00,,,0.00,WUHU216DAVISVP2,2013-09-24 06:16:00,
2013-09-24 02:21:00,42.6,40.9,30.08,East,91,0.0,0.0,94,0.00,,,0.00,WUHU216DAVISVP2,2013-09-24 06:21:00,
2013-09-24 02:26:00,42.4,40.8,30.08,East,91,0.0,0.0,94,0.00,,,0.00,WUHU216DAVISVP2,2013-09-24 06:26:00,
2013-09-24 02:31:00,42.3,40.7,30.08,East,91,0.0,0.0,94,0.00,,,0.00,WUHU216DAVISVP2,2013-09-24 06:31:00,
2013-09-24 02:36:00,42.5,41.2,30.08,East,91,0.0,0.0,95,0.00,,,0.00,WUHU216DAVISVP2,2013-09-24 06:36:00,
2013-09-24 02:41:00,42.8,41.5,30.08,East,91,0.0,0.0,95,0.00,,,0.00,WUHU216DAVISVP2,2013-09-24 06:41:00,
2013-09-24 02:46:00,42.7,41.4,30.08,East,91,0.0,0.0,95,0.00,,,0.00,WUHU216DAVISVP2,2013-09-24 06:46:00,
2013-09-24 02:51:00,42.4,41.1,30.08,East,91,0.0,0.0,95,0.00,,,0.00,WUHU216DAVISVP2,2013-09-24 06:51:00,
2013-09-24 02:56:00,42.3,41.0,30.08,East,91,0.0,0.0,95,0.00,,,0.00,WUHU216DAVISVP2,2013-09-24 06:56:00,
2013-09-24 03:01:00,42.1,40.8,30.08,East,91,0.0,0.0,95,0.00,,,0.00,WUHU216DAVISVP2,2013-09-24 07:01:00,
2013-09-24 03:06:00,42.0,40.6,30.08,East,91,0.0,0.0,95,0.00,,,0.00,WUHU216DAVISVP2,2013-09-24 07:06:00,
2013-09-24 03:11:00,42.2,40.8,30.08,East,91,0.0,0.0,95,0.00,,,0.00,WUHU216DAVISVP2,2013-09-24 07:11:00,
2013-09-24 03:16:00,42.4,41.0,30.08,East,91,0.0,0.0,95,0.00,,,0.00,WUHU216DAVISVP2,2013-09-24 07:16:00,
2013-09-24 03:21:00,42.5,41.1,30.08,East,91,0.0,0.0,95,0.00,,,0.00,WUHU216DAVISVP2,2013-09-24 07:21:00,
2013-09-24 03:26:00,42.4,41.0,30.08,East,91,0.0,0.0,95,0.00,,,0.00,WUHU216DAVISVP2,2013-09-24 07:26:00,
2013-09-24 03:31:00,42.3,40.9,30.07,East,91,0.0,0.0,95,0.00,,,0.00,WUHU216DAVISVP2,2013-09-24 07:31:00,
2013-09-24 03:36:00,42.1,40.7,30.07,East,91,0.0,0.0,95,0.00,,,0.00,WUHU216DAVISVP2,2013-09-24 07:36:00,
2013-09-24 03:41:00,42.0,40.6,30.07,East,91,0.0,0.0,95,0.00,,,0.00,WUHU216DAVISVP2,2013-09-24 07:41:00,
2013-09-24 03:46:00,41.8,40.4,30.07,East,91,0.0,0.0,95,0.00,,,0.00,WUHU216DAVISVP2,2013-09-24 07:46:00,
2013-09-24 03:51:00,41.7,40.3,30.07,East,91,0.0,0.0,95,0.00,,,0.00,WUHU216DAVISVP2,2013-09-24 07:51:00,
2013-09-24 03:56:00,41.7,40.3,30.07,East,91,0.0,0.0,95,0.00,,,0.00,WUHU216DAVISVP2,2013-09-24 07:56:00,
2013-09-24 04:01:00,41.7,40.3,30.07,East,91,0.0,0.0,95,0.00,,,0.00,WUHU216DAVISVP2,2013-09-24 08:01:00,
2013-09-24 04:06:00,41.6,40.2,30.07,East,91,0.0,0.0,95,0.00,,,0.00,WUHU216DAVISVP2,2013-09-24 08:06:00,
2013-09-24 04:11:00,41.5,40.1,30.07,East,91,0.0,0.0,95,0.00,,,0.00,WUHU216DAVISVP2,2013-09-24 08:11:00,
2013-09-24 04:16:00,41.4,40.1,30.07,East,91,0.0,0.0,95,0.00,,,0.00,WUHU216DAVISVP2,2013-09-24 08:16:00,
2013-09-24 04:21:00,41.5,40.2,30.07,East,91,0.0,0.0,95,0.00,,,0.00,WUHU216DAVISVP2,2013-09-24 08:21:00,
2013-09-24 04:26:00,41.4,40.1,30.08,East,91,0.0,0.0,95,0.00,,,0.00,WUHU216DAVISVP2,2013-09-24 08:26:00,
2013-09-24 04:31:00,41.4,40.1,30.08,East,91,0.0,0.0,95,0.00,,,0.00,WUHU216DAVISVP2,2013-09-24 08:31:00,
2013-09-24 04:36:00,41.4,40.1,30.07,East,91,0.0,0.0,95,0.00,,,0.00,WUHU216DAVISVP2,2013-09-24 08:36:00,
2013-09-24 04:41:00,41.2,39.9,30.07,East,91,0.0,0.0,95,0.00,,,0.00,WUHU216DAVISVP2,2013-09-24 08:41:00,
2013-09-24 04:46:00,41.1,39.8,30.07,East,91,0.0,0.0,95,0.00,,,0.00,WUHU216DAVISVP2,2013-09-24 08:46:00,
2013-09-24 04:51:00,41.1,39.7,30.07,East,91,0.0,0.0,95,0.00,,,0.00,WUHU216DAVISVP2,2013-09-24 08:51:00,
2013-09-24 04:56:00,41.0,39.6,30.07,East,91,0.0,0.0,95,0.00,,,0.00,WUHU216DAVISVP2,2013-09-24 08:56:00,
2013-09-24 05:01:00,40.9,39.5,30.07,East,91,0.0,0.0,95,0.00,,,0.00,WUHU216DAVISVP2,2013-09-24 09:01:00,
2013-09-24 05:06:00,40.6,39.2,30.07,East,91,0.0,0.0,95,0.00,,,0.00,WUHU216DAVISVP2,2013-09-24 09:06:00,
2013-09-24 05:11:00,40.7,39.3,30.07,East,91,0.0,0.0,95,0.00,,,0.00,WUHU216DAVISVP2,2013-09-24 09:11:00,
2013-09-24 05:16:00,40.9,39.8,30.07,East,91,0.0,0.0,96,0.00,,,0.00,WUHU216DAVISVP2,2013-09-24 09:16:00,
2013-09-24 05:21:00,40.7,39.3,30.07,East,91,0.0,0.0,95,0.00,,,0.00,WUHU216DAVISVP2,2013-09-24 09:21:00,
2013-09-24 05:26:00,40.6,39.2,30.07,East,91,0.0,0.0,95,0.00,,,0.00,WUHU216DAVISVP2,2013-09-24 09:26:00,
2013-09-24 05:31:00,40.4,39.0,30.07,East,91,0.0,0.0,95,0.00,,,0.00,WUHU216DAVISVP2,2013-09-24 09:31:00,
2013-09-24 05:36:00,40.4,39.0,30.07,East,91,0.0,0.0,95,0.00,,,0.00,WUHU216DAVISVP2,2013-09-24 09:36:00,
2013-09-24 05:41:00,40.2,38.8,30.07,East,91,0.0,0.0,95,0.00,,,0.00,WUHU216DAVISVP2,2013-09-24 09:41:00,
2013-09-24 05:46:00,40.2,38.8,30.07,East,91,0.0,0.0,95,0.00,,,0.00,WUHU216DAVISVP2,2013-09-24 09:46:00,
2013-09-24 05:51:00,40.3,39.3,30.07,East,91,0.0,0.0,96,0.00,,,0.00,WUHU216DAVISVP2,2013-09-24 09:51:00,
2013-09-24 05:56:00,40.4,39.4,30.07,East,91,0.0,0.0,96,0.00,,,0.00,WUHU216DAVISVP2,2013-09-24 09:56:00,
2013-09-24 06:01:00,40.4,39.4,30.07,East,91,0.0,0.0,96,0.00,,,0.00,WUHU216DAVISVP2,2013-09-24 10:01:00,
2013-09-24 06:06:00,40.4,39.4,30.08,East,91,0.0,0.0,96,0.00,,,0.00,WUHU216DAVISVP2,2013-09-24 10:06:00,
2013-09-24 06:11:00,40.4,39.4,30.08,East,91,0.0,0.0,96,0.00,,,0.00,WUHU216DAVISVP2,2013-09-24 10:11:00,
2013-09-24 06:16:00,40.3,39.3,30.08,East,91,0.0,0.0,96,0.00,,,0.00,WUHU216DAVISVP2,2013-09-24 10:16:00,
2013-09-24 06:21:00,40.2,39.2,30.08,East,91,0.0,0.0,96,0.00,,,0.00,WUHU216DAVISVP2,2013-09-24 10:21:00,
2013-09-24 06:26:00,40.2,39.1,30.08,East,91,0.0,0.0,96,0.00,,,0.00,WUHU216DAVISVP2,2013-09-24 10:26:00,
2013-09-24 06:31:00,40.2,39.1,30.08,East,91,0.0,0.0,96,0.00,,,0.00,WUHU216DAVISVP2,2013-09-24 10:31:00,
2013-09-24 06:36:00,40.1,39.0,30.09,East,91,0.0,0.0,96,0.00,,,0.00,WUHU216DAVISVP2,2013-09-24 10:36:00,
2013-09-24 06:41:00,40.1,39.1,30.09,East,91,0.0,0.0,96,0.00,,,0.00,WUHU216DAVISVP2,2013-09-24 10:41:00,
2013-09-24 06:46:00,40.0,38.9,30.09,East,91,0.0,0.0,96,0.00,,,0.00,WUHU216DAVISVP2,2013-09-24 10:46:00,
2013-09-24 06:51:00,39.9,38.8,30.08,East,91,0.0,0.0,96,0.00,,,0.00,WUHU216DAVISVP2,2013-09-24 10:51:00,
2013-09-24 06:56:00,39.9,38.9,30.09,East,91,0.0,0.0,96,0.00,,,0.00,WUHU216DAVISVP2,2013-09-24 10:56:00,
2013-09-24 07:01:00,39.9,38.8,30.09,East,91,0.0,0.0,96,0.00,,,0.00,WUHU216DAVISVP2,2013-09-24 11:01:00,
2013-09-24 07:06:00,39.8,38.8,30.09,East,91,0.0,0.0,96,0.00,,,0.00,WUHU216DAVISVP2,2013-09-24 11:06:00,
2013-09-24 07:11:00,39.7,38.7,30.09,East,91,0.0,0.0,96,0.00,,,0.00,WUHU216DAVISVP2,2013-09-24 11:11:00,
2013-09-24 07:16:00,39.7,38.6,30.09,East,91,0.0,0.0,96,0.00,,,0.00,WUHU216DAVISVP2,2013-09-24 11:16:00,
2013-09-24 07:21:00,39.7,38.7,30.09,East,91,0.0,0.0,96,0.00,,,0.00,WUHU216DAVISVP2,2013-09-24 11:21:00,
2013-09-24 07:26:00,39.5,38.5,30.09,East,91,0.0,0.0,96,0.00,,,0.00,WUHU216DAVISVP2,2013-09-24 11:26:00,
2013-09-24 07:31:00,39.4,38.4,30.09,East,91,0.0,0.0,96,0.00,,,0.00,WUHU216DAVISVP2,2013-09-24 11:31:00,
2013-09-24 07:36:00,39.5,38.5,30.09,East,91,0.0,0.0,96,0.00,,,0.00,WUHU216DAVISVP2,2013-09-24 11:36:00,
2013-09-24 07:41:00,39.7,38.6,30.09,East,91,0.0,0.0,96,0.00,,,0.00,WUHU216DAVISVP2,2013-09-24 11:41:00,
2013-09-24 07:46:00,40.2,39.1,30.09,East,91,0.0,0.0,96,0.00,,,0.00,WUHU216DAVISVP2,2013-09-24 11:46:00,
2013-09-24 07:51:00,40.2,39.1,30.09,East,91,0.0,0.0,96,0.00,,,0.00,WUHU216DAVISVP2,2013-09-24 11:51:00,
2013-09-24 07:56:00,40.1,39.0,30.09,East,91,0.0,0.0,96,0.00,,,0.00,WUHU216DAVISVP2,2013-09-24 11:56:00,
2013-09-24 08:01:00,40.2,39.1,30.09,East,91,0.0,0.0,96,0.00,,,0.00,WUHU216DAVISVP2,2013-09-24 12:01:00,
2013-09-24 08:06:00,40.2,39.1,30.09,East,91,0.0,0.0,96,0.00,,,0.00,WUHU216DAVISVP2,2013-09-24 12:06:00,
2013-09-24 08:11:00,40.4,39.4,30.09,East,91,0.0,0.0,96,0.00,,,0.00,WUHU216DAVISVP2,2013-09-24 12:11:00,
2013-09-24 08:16:00,40.7,39.9,30.09,East,91,0.0,0.0,97,0.00,,,0.00,WUHU216DAVISVP2,2013-09-24 12:16:00,
2013-09-24 08:21:00,41.3,40.5,30.09,East,91,0.0,0.0,97,0.00,,,0.00,WUHU216DAVISVP2,2013-09-24 12:21:00,
2013-09-24 08:26:00,41.9,41.1,30.09,East,91,0.0,0.0,97,0.00,,,0.00,WUHU216DAVISVP2,2013-09-24 12:26:00,
2013-09-24 08:31:00,42.3,41.5,30.09,East,91,0.0,0.0,97,0.00,,,0.00,WUHU216DAVISVP2,2013-09-24 12:31:00,
2013-09-24 08:36:00,42.8,42.0,30.09,East,91,0.0,0.0,97,0.00,,,0.00,WUHU216DAVISVP2,2013-09-24 12:36:00,
2013-09-24 08:41:00,43.3,42.5,30.09,East,91,0.0,0.0,97,0.00,,,0.00,WUHU216DAVISVP2,2013-09-24 12:41:00,
2013-09-24 08:46:00,43.7,42.9,30.08,East,91,0.0,0.0,97,0.00,,,0.00,WUHU216DAVISVP2,2013-09-24 12:46:00,
2013-09-24 08:51:00,44.2,43.4,30.08,East,91,0.0,0.0,97,0.00,,,0.00,WUHU216DAVISVP2,2013-09-24 12:51:00,
2013-09-24 08:56:00,44.8,44.0,30.09,East,91,0.0,0.0,97,0.00,,,0.00,WUHU216DAVISVP2,2013-09-24 12:56:00,
2013-09-24 09:01:00,45.5,44.7,30.09,East,91,0.0,0.0,97,0.00,,,0.00,WUHU216DAVISVP2,2013-09-24 13:01:00,
2013-09-24 09:06:00,46.2,45.4,30.09,East,91,0.0,0.0,97,0.00,,,0.00,WUHU216DAVISVP2,2013-09-24 13:06:00,
2013-09-24 09:11:00,47.0,46.2,30.08,East,91,0.0,0.0,97,0.00,,,0.00,WUHU216DAVISVP2,2013-09-24 13:11:00,
2013-09-24 09:16:00,47.7,46.9,30.09,East,91,0.0,0.0,97,0.00,,,0.00,WUHU216DAVISVP2,2013-09-24 13:16:00,
2013-09-24 09:21:00,48.3,47.5,30.09,East,91,0.0,0.0,97,0.00,,,0.00,WUHU216DAVISVP2,2013-09-24 13:21:00,
2013-09-24 09:26:00,48.8,48.0,30.09,East,91,0.0,1.0,97,0.00,,,0.00,WUHU216DAVISVP2,2013-09-24 13:26:00,
2013-09-24 09:31:00,49.2,48.4,30.09,East,91,0.0,1.0,97,0.00,,,0.00,WUHU216DAVISVP2,2013-09-24 13:31:00,
2013-09-24 09:36:00,49.6,48.8,30.09,East,91,0.0,0.0,97,0.00,,,0.00,WUHU216DAVISVP2,2013-09-24 13:36:00,
2013-09-24 09:41:00,50.1,49.3,30.09,East,91,0.0,0.0,97,0.00,,,0.00,WUHU216DAVISVP2,2013-09-24 13:41:00,
2013-09-24 09:46:00,50.8,49.7,30.09,East,91,0.0,1.0,96,0.00,,,0.00,WUHU216DAVISVP2,2013-09-24 13:46:00,
2013-09-24 09:51:00,51.4,49.7,30.09,East,91,0.0,1.0,94,0.00,,,0.00,WUHU216DAVISVP2,2013-09-24 13:51:00,
2013-09-24 09:56:00,51.9,49.9,30.09,East,91,0.0,1.0,93,0.00,,,0.00,WUHU216DAVISVP2,2013-09-24 13:56:00,
2013-09-24 10:01:00,52.3,49.8,30.09,East,90,0.0,2.0,91,0.00,,,0.00,WUHU216DAVISVP2,2013-09-24 14:01:00,
2013-09-24 10:06:00,52.8,50.2,30.09,East,90,0.0,2.0,91,0.00,,,0.00,WUHU216DAVISVP2,2013-09-24 14:06:00,
2013-09-24 10:11:00,53.2,50.0,30.09,East,90,0.0,2.0,89,0.00,,,0.00,WUHU216DAVISVP2,2013-09-24 14:11:00,
2013-09-24 10:16:00,53.7,49.9,30.08,East,90,0.0,1.0,87,0.00,,,0.00,WUHU216DAVISVP2,2013-09-24 14:16:00,
2013-09-24 10:21:00,54.4,50.9,30.08,East,90,0.0,1.0,88,0.00,,,0.00,WUHU216DAVISVP2,2013-09-24 14:21:00,
2013-09-24 10:26:00,55.1,50.4,30.08,NE,55,0.0,4.0,84,0.00,,,0.00,WUHU216DAVISVP2,2013-09-24 14:26:00,
2013-09-24 10:31:00,55.7,49.7,30.08,ENE,59,0.0,4.0,80,0.00,,,0.00,WUHU216DAVISVP2,2013-09-24 14:31:00,
2013-09-24 10:36:00,56.5,50.5,30.08,East,92,0.0,4.0,80,0.00,,,0.00,WUHU216DAVISVP2,2013-09-24 14:36:00,
2013-09-24 10:41:00,57.0,49.6,30.08,SE,139,0.0,6.0,76,0.00,,,0.00,WUHU216DAVISVP2,2013-09-24 14:41:00,
2013-09-24 10:46:00,57.5,49.4,30.08,ESE,112,0.0,6.0,74,0.00,,,0.00,WUHU216DAVISVP2,2013-09-24 14:46:00,
2013-09-24 10:51:00,57.7,48.9,30.08,ESE,111,0.0,6.0,72,0.00,,,0.00,WUHU216DAVISVP2,2013-09-24 14:51:00,
2013-09-24 10:56:00,58.2,48.6,30.08,East,96,1.0,6.0,70,0.00,,,0.00,WUHU216DAVISVP2,2013-09-24 14:56:00,
2013-09-24 11:01:00,58.5,48.9,30.08,East,99,3.0,8.0,70,0.00,,,0.00,WUHU216DAVISVP2,2013-09-24 15:01:00,
2013-09-24 11:06:00,58.7,49.1,30.08,SSW,201,0.0,8.0,70,0.00,,,0.00,WUHU216DAVISVP2,2013-09-24 15:06:00,
2013-09-24 11:11:00,59.1,49.8,30.08,NE,35,5.0,7.0,71,0.00,,,0.00,WUHU216DAVISVP2,2013-09-24 15:11:00,
2013-09-24 11:16:00,59.3,48.9,30.08,East,96,1.0,9.0,68,0.00,,,0.00,WUHU216DAVISVP2,2013-09-24 15:16:00,
2013-09-24 11:21:00,59.3,49.6,30.08,ENE,59,0.0,9.0,70,0.00,,,0.00,WUHU216DAVISVP2,2013-09-24 15:21:00,
2013-09-24 11:26:00,59.5,49.5,30.08,SE,139,4.0,7.0,69,0.00,,,0.00,WUHU216DAVISVP2,2013-09-24 15:26:00,
2013-09-24 11:31:00,59.5,49.8,30.08,SE,128,4.0,7.0,70,0.00,,,0.00,WUHU216DAVISVP2,2013-09-24 15:31:00,
2013-09-24 11:36:00,59.8,50.5,30.08,ENE,62,5.0,7.0,71,0.00,,,0.00,WUHU216DAVISVP2,2013-09-24 15:36:00,
2013-09-24 11:41:00,59.8,50.5,30.07,SE,128,4.0,7.0,71,0.00,,,0.00,WUHU216DAVISVP2,2013-09-24 15:41:00,
2013-09-24 11:46:00,60.2,49.7,30.07,East,92,4.0,6.0,68,0.00,,,0.00,WUHU216DAVISVP2,2013-09-24 15:46:00,
2013-09-24 11:51:00,60.3,50.2,30.07,East,84,1.0,6.0,69,0.00,,,0.00,WUHU216DAVISVP2,2013-09-24 15:51:00,
2013-09-24 11:56:00,60.7,50.2,30.07,East,86,7.0,8.0,68,0.00,,,0.00,WUHU216DAVISVP2,2013-09-24 15:56:00,
2013-09-24 12:01:00,60.7,49.8,30.07,NE,46,1.0,8.0,67,0.00,,,0.00,WUHU216DAVISVP2,2013-09-24 16:01:00,
2013-09-24 12:06:00,60.6,50.1,30.06,ESE,114,6.0,7.0,68,0.00,,,0.00,WUHU216DAVISVP2,2013-09-24 16:06:00,
2013-09-24 12:11:00,60.5,49.6,30.06,East,86,4.0,8.0,67,0.00,,,0.00,WUHU216DAVISVP2,2013-09-24 16:11:00,
2013-09-24 12:16:00,60.4,49.1,30.05,SE,135,6.0,10.0,66,0.00,,,0.00,WUHU216DAVISVP2,2013-09-24 16:16:00,
2013-09-24 12:21:00,60.4,49.1,30.05,SE,132,1.0,10.0,66,0.00,,,0.00,WUHU216DAVISVP2,2013-09-24 16:21:00,
2013-09-24 12:26:00,60.7,49.8,30.05,ENE,77,1.0,8.0,67,0.00,,,0.00,WUHU216DAVISVP2,2013-09-24 16:26:00,
2013-09-24 12:32:00,61.2,50.3,30.05,ENE,76,6.0,8.0,67,0.00,,,0.00,WUHU216DAVISVP2,2013-09-24 16:32:00,
2013-09-24 12:37:00,61.7,49.1,30.05,SE,140,5.0,9.0,63,0.00,,,0.00,WUHU216DAVISVP2,2013-09-24 16:37:00,
2013-09-24 12:42:00,62.1,49.9,30.05,NE,53,1.0,9.0,64,0.00,,,0.00,WUHU216DAVISVP2,2013-09-24 16:42:00,
2013-09-24 12:47:00,62.4,50.6,30.04,ESE,114,2.0,7.0,65,0.00,,,0.00,WUHU216DAVISVP2,2013-09-24 16:47:00,
2013-09-24 12:52:00,62.7,50.9,30.04,SE,144,7.0,8.0,65,0.00,,,0.00,WUHU216DAVISVP2,2013-09-24 16:52:00,
2013-09-24 12:57:00,62.7,50.1,30.04,East,97,2.0,9.0,63,0.00,,,0.00,WUHU216DAVISVP2,2013-09-24 16:57:00,
2013-09-24 13:02:00,62.5,51.1,30.04,East,98,2.0,13.0,66,0.00,,,0.00,WUHU216DAVISVP2,2013-09-24 17:02:00,
2013-09-24 13:07:00,62.3,51.4,30.03,NE,42,6.0,13.0,67,0.00,,,0.00,WUHU216DAVISVP2,2013-09-24 17:07:00,
2013-09-24 13:12:00,61.9,51.0,30.03,ESE,111,0.0,8.0,67,0.00,,,0.00,WUHU216DAVISVP2,2013-09-24 17:12:00,
2013-09-24 13:17:00,61.7,50.8,30.03,NE,42,0.0,10.0,67,0.00,,,0.00,WUHU216DAVISVP2,2013-09-24 17:17:00,
2013-09-24 13:22:00,61.6,51.1,30.02,North,9,6.0,10.0,68,0.00,,,0.00,WUHU216DAVISVP2,2013-09-24 17:22:00,
2013-09-24 13:27:00,61.8,50.5,30.02,SE,124,4.0,10.0,66,0.00,,,0.00,WUHU216DAVISVP2,2013-09-24 17:27:00,
2013-09-24 13:32:00,61.9,51.4,30.02,ENE,61,6.0,10.0,68,0.00,,,0.00,WUHU216DAVISVP2,2013-09-24 17:32:00,
2013-09-24 13:37:00,61.9,50.6,30.02,ESE,108,5.0,8.0,66,0.00,,,0.00,WUHU216DAVISVP2,2013-09-24 17:37:00,
2013-09-24 13:42:00,61.9,51.4,30.02,North,355,1.0,7.0,68,0.00,,,0.00,WUHU216DAVISVP2,2013-09-24 17:42:00,
2013-09-24 13:47:00,62.2,50.7,30.02,SE,131,2.0,8.0,66,0.00,,,0.00,WUHU216DAVISVP2,2013-09-24 17:47:00,
2013-09-24 13:52:00,62.3,50.4,30.02,East,80,3.0,8.0,65,0.00,,,0.00,WUHU216DAVISVP2,2013-09-24 17:52:00,
2013-09-24 13:57:00,62.4,50.9,30.02,NE,56,6.0,8.0,66,0.00,,,0.00,WUHU216DAVISVP2,2013-09-24 17:57:00,
2013-09-24 14:02:00,62.6,50.2,30.01,NE,36,2.0,8.0,64,0.00,,,0.00,WUHU216DAVISVP2,2013-09-24 18:02:00,
2013-09-24 14:07:00,62.6,49.4,30.01,East,93,1.0,9.0,62,0.00,,,0.00,WUHU216DAVISVP2,2013-09-24 18:07:00,
2013-09-24 14:12:00,62.9,51.0,30.01,SE,142,8.0,9.0,65,0.00,,,0.00,WUHU216DAVISVP2,2013-09-24 18:12:00,
2013-09-24 14:17:00,63.1,49.9,30.01,SE,131,1.0,9.0,62,0.00,,,0.00,WUHU216DAVISVP2,2013-09-24 18:17:00,
2013-09-24 14:22:00,62.9,49.7,30.00,ESE,121,0.0,9.0,62,0.00,,,0.00,WUHU216DAVISVP2,2013-09-24 18:22:00,
2013-09-24 14:27:00,62.9,50.1,30.00,NE,35,0.0,8.0,63,0.00,,,0.00,WUHU216DAVISVP2,2013-09-24 18:27:00,
2013-09-24 14:32:00,63.1,49.9,30.00,East,90,7.0,8.0,62,0.00,,,0.00,WUHU216DAVISVP2,2013-09-24 18:32:00,
2013-09-24 14:37:00,63.2,50.4,30.00,NE,54,2.0,8.0,63,0.00,,,0.00,WUHU216DAVISVP2,2013-09-24 18:37:00,
2013-09-24 14:41:00,63.5,50.4,30.00,East,83,1.0,8.0,62,0.00,,,0.00,WUHU216DAVISVP2,2013-09-24 18:41:00,
2013-09-24 14:46:00,63.6,50.5,30.00,East,88,5.0,7.0,62,0.00,,,0.00,WUHU216DAVISVP2,2013-09-24 18:46:00,
2013-09-24 14:51:00,64.0,51.3,30.00,NE,52,5.0,8.0,63,0.00,,,0.00,WUHU216DAVISVP2,2013-09-24 18:51:00,
2013-09-24 14:56:00,64.1,51.8,29.99,ENE,74,1.0,8.0,64,0.00,,,0.00,WUHU216DAVISVP2,2013-09-24 18:56:00,
2013-09-24 15:01:00,64.2,51.1,29.99,East,87,2.0,13.0,62,0.00,,,0.00,WUHU216DAVISVP2,2013-09-24 19:01:00,
2013-09-24 15:06:00,64.1,51.8,29.98,SE,131,5.0,13.0,64,0.00,,,0.00,WUHU216DAVISVP2,2013-09-24 19:06:00,
2013-09-24 15:11:00,64.2,51.5,29.98,ESE,106,5.0,11.0,63,0.00,,,0.00,WUHU216DAVISVP2,2013-09-24 19:11:00,
2013-09-24 15:16:00,64.3,50.3,29.98,SSE,157,5.0,10.0,60,0.00,,,0.00,WUHU216DAVISVP2,2013-09-24 19:16:00,
2013-09-24 15:21:00,64.4,51.3,29.98,East,97,4.0,10.0,62,0.00,,,0.00,WUHU216DAVISVP2,2013-09-24 19:21:00,
2013-09-24 15:26:00,64.7,51.1,29.98,SE,127,3.0,8.0,61,0.00,,,0.00,WUHU216DAVISVP2,2013-09-24 19:26:00,
2013-09-24 15:31:00,64.8,51.6,29.98,NNE,15,4.0,8.0,62,0.00,,,0.00,WUHU216DAVISVP2,2013-09-24 19:31:00,
2013-09-24 15:36:00,65.0,51.4,29.98,SE,128,0.0,8.0,61,0.00,,,0.00,WUHU216DAVISVP2,2013-09-24 19:36:00,
2013-09-24 15:41:00,65.2,50.2,29.98,East,85,6.0,9.0,58,0.00,,,0.00,WUHU216DAVISVP2,2013-09-24 19:41:00,
2013-09-24 15:46:00,65.1,50.1,29.98,East,92,5.0,9.0,58,0.00,,,0.00,WUHU216DAVISVP2,2013-09-24 19:46:00,
2013-09-24 15:51:00,64.9,49.4,29.97,SE,140,8.0,9.0,57,0.00,,,0.00,WUHU216DAVISVP2,2013-09-24 19:51:00,
2013-09-24 15:56:00,65.0,49.5,29.97,ESE,105,0.0,10.0,57,0.00,,,0.00,WUHU216DAVISVP2,2013-09-24 19:56:00,
2013-09-24 16:01:00,65.2,50.2,29.97,NE,54,6.0,10.0,58,0.00,,,0.00,WUHU216DAVISVP2,2013-09-24 20:01:00,
2013-09-24 16:06:00,65.2,50.2,29.97,ESE,123,2.0,8.0,58,0.00,,,0.00,WUHU216DAVISVP2,2013-09-24 20:06:00,
2013-09-24 16:11:00,65.4,50.8,29.97,ESE,108,4.0,7.0,59,0.00,,,0.00,WUHU216DAVISVP2,2013-09-24 20:11:00,
2013-09-24 16:16:00,65.6,51.0,29.97,NE,51,3.0,7.0,59,0.00,,,0.00,WUHU216DAVISVP2,2013-09-24 20:16:00,
2013-09-24 16:21:00,65.6,50.1,29.97,SE,143,6.0,8.0,57,0.00,,,0.00,WUHU216DAVISVP2,2013-09-24 20:21:00,
2013-09-24 16:26:00,65.6,50.1,29.97,East,86,1.0,8.0,57,0.00,,,0.00,WUHU216DAVISVP2,2013-09-24 20:26:00,
2013-09-24 16:31:00,65.5,49.5,29.97,East,91,4.0,7.0,56,0.00,,,0.00,WUHU216DAVISVP2,2013-09-24 20:31:00,
2013-09-24 16:36:00,65.5,50.5,29.97,SSE,161,0.0,8.0,58,0.00,,,0.00,WUHU216DAVISVP2,2013-09-24 20:36:00,
2013-09-24 16:41:00,65.8,49.8,29.96,SE,137,1.0,9.0,56,0.00,,,0.00,WUHU216DAVISVP2,2013-09-24 20:41:00,
2013-09-24 16:46:00,65.9,49.4,29.97,East,86,4.0,9.0,55,0.00,,,0.00,WUHU216DAVISVP2,2013-09-24 20:46:00,
2013-09-24 16:51:00,65.8,48.3,29.96,ENE,76,4.0,9.0,53,0.00,,,0.00,WUHU216DAVISVP2,2013-09-24 20:51:00,
2013-09-24 16:56:00,65.7,48.2,29.97,East,88,0.0,9.0,53,0.00,,,0.00,WUHU216DAVISVP2,2013-09-24 20:56:00,
2013-09-24 17:01:00,65.7,48.7,29.96,ESE,111,6.0,7.0,54,0.00,,,0.00,WUHU216DAVISVP2,2013-09-24 21:01:00,
2013-09-24 17:06:00,65.6,48.1,29.96,ESE,109,5.0,8.0,53,0.00,,,0.00,WUHU216DAVISVP2,2013-09-24 21:06:00,
2013-09-24 17:11:00,65.5,49.0,29.96,ENE,69,5.0,8.0,55,0.00,,,0.00,WUHU216DAVISVP2,2013-09-24 21:11:00,
2013-09-24 17:16:00,65.5,49.0,29.96,ESE,109,1.0,8.0,55,0.00,,,0.00,WUHU216DAVISVP2,2013-09-24 21:16:00,
2013-09-24 17:21:00,65.6,48.1,29.96,East,100,4.0,8.0,53,0.00,,,0.00,WUHU216DAVISVP2,2013-09-24 21:21:00,
2013-09-24 17:26:00,65.3,48.8,29.96,ENE,75,0.0,8.0,55,0.00,,,0.00,WUHU216DAVISVP2,2013-09-24 21:26:00,
2013-09-24 17:31:00,65.3,48.3,29.96,East,97,6.0,9.0,54,0.00,,,0.00,WUHU216DAVISVP2,2013-09-24 21:31:00,
2013-09-24 17:36:00,65.3,48.2,29.95,ENE,58,6.0,9.0,54,0.00,,,0.00,WUHU216DAVISVP2,2013-09-24 21:36:00,
2013-09-24 17:41:00,65.2,47.6,29.96,North,11,5.0,9.0,53,0.00,,,0.00,WUHU216DAVISVP2,2013-09-24 21:41:00,
2013-09-24 17:46:00,65.1,48.0,29.95,East,84,1.0,8.0,54,0.00,,,0.00,WUHU216DAVISVP2,2013-09-24 21:46:00,
2013-09-24 17:51:00,65.0,49.0,29.95,East,98,2.0,8.0,56,0.00,,,0.00,WUHU216DAVISVP2,2013-09-24 21:51:00,
2013-09-24 17:56:00,64.9,48.9,29.95,SE,131,2.0,7.0,56,0.00,,,0.00,WUHU216DAVISVP2,2013-09-24 21:56:00,
2013-09-24 18:01:00,65.0,48.5,29.95,ENE,70,4.0,6.0,55,0.00,,,0.00,WUHU216DAVISVP2,2013-09-24 22:01:00,
2013-09-24 18:06:00,64.8,48.4,29.95,East,98,1.0,8.0,55,0.00,,,0.00,WUHU216DAVISVP2,2013-09-24 22:06:00,
2013-09-24 18:11:00,64.4,49.3,29.95,SE,137,5.0,8.0,58,0.00,,,0.00,WUHU216DAVISVP2,2013-09-24 22:11:00,
2013-09-24 18:16:00,64.3,50.1,29.95,East,81,5.0,8.0,60,0.00,,,0.00,WUHU216DAVISVP2,2013-09-24 22:16:00,
2013-09-24 18:21:00,64.1,49.5,29.95,ESE,115,1.0,8.0,59,0.00,,,0.00,WUHU216DAVISVP2,2013-09-24 22:21:00,
2013-09-24 18:26:00,64.2,50.5,29.95,East,101,4.0,8.0,61,0.00,,,0.00,WUHU216DAVISVP2,2013-09-24 22:26:00,
2013-09-24 18:31:00,64.2,50.9,29.95,ESE,113,1.0,5.0,62,0.00,,,0.00,WUHU216DAVISVP2,2013-09-24 22:31:00,
2013-09-24 18:36:00,64.0,50.7,29.95,ESE,119,5.0,8.0,62,0.00,,,0.00,WUHU216DAVISVP2,2013-09-24 22:36:00,
2013-09-24 18:41:00,63.6,50.8,29.96,SE,129,5.0,8.0,63,0.00,,,0.00,WUHU216DAVISVP2,2013-09-24 22:41:00,
2013-09-24 18:46:00,63.3,51.3,29.96,ESE,112,1.0,8.0,65,0.00,,,0.00,WUHU216DAVISVP2,2013-09-24 22:46:00,
2013-09-24 18:51:00,63.1,51.6,29.95,East,95,1.0,7.0,66,0.00,,,0.00,WUHU216DAVISVP2,2013-09-24 22:51:00,
2013-09-24 18:56:00,62.8,51.7,29.95,East,101,1.0,7.0,67,0.00,,,0.00,WUHU216DAVISVP2,2013-09-24 22:56:00,
2013-09-24 19:01:00,62.5,51.8,29.95,ESE,119,1.0,7.0,68,0.00,,,0.00,WUHU216DAVISVP2,2013-09-24 23:01:00,
2013-09-24 19:06:00,62.0,51.7,29.95,SE,125,4.0,5.0,69,0.00,,,0.00,WUHU216DAVISVP2,2013-09-24 23:06:00,
2013-09-24 19:11:00,61.6,51.7,29.96,East,94,0.0,5.0,70,0.00,,,0.00,WUHU216DAVISVP2,2013-09-24 23:11:00,
2013-09-24 19:16:00,61.1,51.8,29.95,ESE,103,0.0,5.0,71,0.00,,,0.00,WUHU216DAVISVP2,2013-09-24 23:16:00,
2013-09-24 19:21:00,60.7,51.7,29.95,ESE,104,1.0,5.0,72,0.00,,,0.00,WUHU216DAVISVP2,2013-09-24 23:21:00,
2013-09-24 19:26:00,60.1,51.4,29.95,SE,132,0.0,4.0,73,0.00,,,0.00,WUHU216DAVISVP2,2013-09-24 23:26:00,
2013-09-24 19:31:00,59.7,51.4,29.95,SE,132,1.0,4.0,74,0.00,,,0.00,WUHU216DAVISVP2,2013-09-24 23:31:00,
2013-09-24 19:36:00,59.4,51.5,29.95,ESE,123,0.0,4.0,75,0.00,,,0.00,WUHU216DAVISVP2,2013-09-24 23:36:00,
2013-09-24 19:41:00,58.9,51.0,29.95,ESE,123,0.0,1.0,75,0.00,,,0.00,WUHU216DAVISVP2,2013-09-24 23:41:00,
2013-09-24 19:46:00,58.5,51.0,29.95,ESE,123,0.0,1.0,76,0.00,,,0.00,WUHU216DAVISVP2,2013-09-24 23:46:00,
2013-09-24 19:51:00,57.9,50.7,29.95,ESE,123,0.0,1.0,77,0.00,,,0.00,WUHU216DAVISVP2,2013-09-24 23:51:00,
2013-09-24 19:56:00,57.5,51.0,29.95,ESE,123,0.0,1.0,79,0.00,,,0.00,WUHU216DAVISVP2,2013-09-24 23:56:00,
2013-09-24 20:02:00,57.1,50.6,29.94,ESE,123,0.0,1.0,79,0.00,,,0.00,WUHU216DAVISVP2,2013-09-25 00:02:00,
2013-09-24 20:07:00,56.8,50.7,29.95,ESE,123,0.0,1.0,80,0.00,,,0.00,WUHU216DAVISVP2,2013-09-25 00:07:00,
2013-09-24 20:12:00,56.4,50.3,29.95,ESE,123,0.0,0.0,80,0.00,,,0.00,WUHU216DAVISVP2,2013-09-25 00:12:00,
2013-09-24 20:17:00,56.3,50.5,29.95,ESE,123,0.0,0.0,81,0.00,,,0.00,WUHU216DAVISVP2,2013-09-25 00:17:00,
2013-09-24 20:22:00,56.1,50.3,29.95,ESE,123,0.0,0.0,81,0.00,,,0.00,WUHU216DAVISVP2,2013-09-25 00:22:00,
2013-09-24 20:27:00,55.9,50.2,29.95,ESE,123,0.0,0.0,81,0.00,,,0.00,WUHU216DAVISVP2,2013-09-25 00:27:00,
2013-09-24 20:32:00,55.6,50.2,29.95,ESE,123,0.0,0.0,82,0.00,,,0.00,WUHU216DAVISVP2,2013-09-25 00:32:00,
2013-09-24 20:37:00,55.3,50.2,29.95,ESE,123,0.0,0.0,83,0.00,,,0.00,WUHU216DAVISVP2,2013-09-25 00:37:00,
2013-09-24 20:42:00,55.1,50.0,29.95,ESE,123,0.0,0.0,83,0.00,,,0.00,WUHU216DAVISVP2,2013-09-25 00:42:00,
2013-09-24 20:47:00,54.8,49.8,29.95,ESE,123,0.0,0.0,83,0.00,,,0.00,WUHU216DAVISVP2,2013-09-25 00:47:00,
2013-09-24 20:51:00,54.4,49.7,29.95,ESE,123,0.0,0.0,84,0.00,,,0.00,WUHU216DAVISVP2,2013-09-25 00:51:00,
2013-09-24 20:56:00,54.0,49.6,29.95,ESE,123,0.0,0.0,85,0.00,,,0.00,WUHU216DAVISVP2,2013-09-25 00:56:00,
2013-09-24 21:02:00,53.5,49.1,29.96,ESE,123,0.0,0.0,85,0.00,,,0.00,WUHU216DAVISVP2,2013-09-25 01:02:00,
2013-09-24 21:07:00,53.0,48.9,29.96,ESE,123,0.0,0.0,86,0.00,,,0.00,WUHU216DAVISVP2,2013-09-25 01:07:00,
2013-09-24 21:12:00,52.6,48.5,29.96,ESE,123,0.0,0.0,86,0.00,,,0.00,WUHU216DAVISVP2,2013-09-25 01:12:00,
2013-09-24 21:16:00,52.2,48.4,29.96,ESE,123,0.0,0.0,87,0.00,,,0.00,WUHU216DAVISVP2,2013-09-25 01:16:00,
2013-09-24 21:22:00,51.8,48.0,29.95,ESE,123,0.0,0.0,87,0.00,,,0.00,WUHU216DAVISVP2,2013-09-25 01:22:00,
2013-09-24 21:27:00,51.5,48.0,29.95,ESE,123,0.0,0.0,88,0.00,,,0.00,WUHU216DAVISVP2,2013-09-25 01:27:00,
2013-09-24 21:31:00,51.1,48.0,29.96,ESE,123,0.0,0.0,89,0.00,,,0.00,WUHU216DAVISVP2,2013-09-25 01:31:00,
2013-09-24 21:37:00,50.9,47.8,29.95,ESE,123,0.0,0.0,89,0.00,,,0.00,WUHU216DAVISVP2,2013-09-25 01:37:00,
2013-09-24 21:42:00,50.7,47.9,29.95,ESE,123,0.0,0.0,90,0.00,,,0.00,WUHU216DAVISVP2,2013-09-25 01:42:00,
2013-09-24 21:47:00,50.6,48.1,29.95,ESE,123,0.0,0.0,91,0.00,,,0.00,WUHU216DAVISVP2,2013-09-25 01:47:00,
2013-09-24 21:52:00,50.5,48.0,29.95,ESE,123,0.0,0.0,91,0.00,,,0.00,WUHU216DAVISVP2,2013-09-25 01:52:00,
2013-09-24 21:57:00,50.4,48.2,29.94,ESE,123,0.0,0.0,92,0.00,,,0.00,WUHU216DAVISVP2,2013-09-25 01:57:00,
2013-09-24 22:02:00,50.3,48.1,29.95,ESE,123,0.0,0.0,92,0.00,,,0.00,WUHU216DAVISVP2,2013-09-25 02:02:00,
2013-09-24 22:07:00,50.3,48.1,29.95,ESE,123,0.0,0.0,92,0.00,,,0.00,WUHU216DAVISVP2,2013-09-25 02:07:00,
2013-09-24 22:11:00,50.1,47.9,29.95,ESE,123,0.0,0.0,92,0.00,,,0.00,WUHU216DAVISVP2,2013-09-25 02:11:00,
2013-09-24 22:16:00,50.0,48.1,29.95,ESE,123,0.0,0.0,93,0.00,,,0.00,WUHU216DAVISVP2,2013-09-25 02:16:00,
2013-09-24 22:21:00,50.0,48.0,29.95,ESE,123,0.0,0.0,93,0.00,,,0.00,WUHU216DAVISVP2,2013-09-25 02:21:00,
2013-09-24 22:26:00,49.9,47.9,29.95,ESE,123,0.0,0.0,93,0.00,,,0.00,WUHU216DAVISVP2,2013-09-25 02:26:00,
2013-09-24 22:31:00,49.9,47.9,29.95,ESE,123,0.0,0.0,93,0.00,,,0.00,WUHU216DAVISVP2,2013-09-25 02:31:00,
2013-09-24 22:36:00,49.9,47.9,29.95,ESE,123,0.0,0.0,93,0.00,,,0.00,WUHU216DAVISVP2,2013-09-25 02:36:00,
2013-09-24 22:41:00,49.7,47.7,29.95,ESE,123,0.0,0.0,93,0.00,,,0.00,WUHU216DAVISVP2,2013-09-25 02:41:00,
2013-09-24 22:46:00,49.5,47.5,29.95,ESE,123,0.0,0.0,93,0.00,,,0.00,WUHU216DAVISVP2,2013-09-25 02:46:00,
2013-09-24 22:51:00,49.4,47.4,29.95,ESE,123,0.0,0.0,93,0.00,,,0.00,WUHU216DAVISVP2,2013-09-25 02:51:00,
2013-09-24 22:56:00,49.2,47.2,29.95,ESE,123,0.0,0.0,93,0.00,,,0.00,WUHU216DAVISVP2,2013-09-25 02:56:00,
2013-09-24 23:02:00,49.0,47.0,29.95,ESE,123,0.0,0.0,93,0.00,,,0.00,WUHU216DAVISVP2,2013-09-25 03:02:00,
2013-09-24 23:07:00,48.6,46.3,29.95,ESE,123,0.0,0.0,92,0.00,,,0.00,WUHU216DAVISVP2,2013-09-25 03:07:00,
2013-09-24 23:12:00,48.5,46.5,29.95,ESE,123,0.0,0.0,93,0.00,,,0.00,WUHU216DAVISVP2,2013-09-25 03:12:00,
2013-09-24 23:17:00,48.5,46.5,29.95,ESE,123,0.0,0.0,93,0.00,,,0.00,WUHU216DAVISVP2,2013-09-25 03:17:00,
2013-09-24 23:22:00,48.3,46.3,29.95,ESE,123,0.0,0.0,93,0.00,,,0.00,WUHU216DAVISVP2,2013-09-25 03:22:00,
2013-09-24 23:27:00,48.2,46.2,29.95,ESE,123,0.0,0.0,93,0.00,,,0.00,WUHU216DAVISVP2,2013-09-25 03:27:00,
2013-09-24 23:32:00,48.1,46.1,29.95,ESE,123,0.0,0.0,93,0.00,,,0.00,WUHU216DAVISVP2,2013-09-25 03:32:00,
2013-09-24 23:37:00,48.1,46.4,29.94,ESE,123,0.0,0.0,94,0.00,,,0.00,WUHU216DAVISVP2,2013-09-25 03:37:00,
2013-09-24 23:42:00,48.1,46.4,29.94,ESE,123,0.0,0.0,94,0.00,,,0.00,WUHU216DAVISVP2,2013-09-25 03:42:00,
2013-09-24 23:47:00,48.1,46.5,29.94,ESE,123,0.0,0.0,94,0.00,,,0.00,WUHU216DAVISVP2,2013-09-25 03:47:00,
2013-09-24 23:52:00,48.1,46.5,29.94,ESE,123,0.0,0.0,94,0.00,,,0.00,WUHU216DAVISVP2,2013-09-25 03:52:00,
2013-09-24 23:57:00,48.1,46.5,29.94,ESE,123,0.0,0.0,94,0.00,,,0.00,WUHU216DAVISVP2,2013-09-25 03:57:00,